Time;durP1;ratioP1;P1;durP2;ratioP2;P2;SDS_P1;SDS_P2;PMS_P1;PMS_P2;Temp;Humidity;BMP_temperature;BMP_pressure;BME280_temperature;BME280_humidity;BME280_pressure;Samples;Min_cycle;Max_cycle;Signal;HPM_P1;HPM_P2
2022/08/21 00:00:00;;;;;;;8.10;3.88;;;16.10;99.90;;;;;;5103884;28;20064;-62
2022/08/21 00:02:28;;;;;;;9.40;4.20;;;16.10;99.90;;;;;;5105143;28;20087;-62
2022/08/21 00:04:54;;;;;;;10.15;4.57;;;16.00;99.90;;;;;;5102406;28;20039;-62
2022/08/21 00:07:20;;;;;;;7.18;4.50;;;16.00;99.90;;;;;;5100793;28;20048;-62
2022/08/21 00:09:47;;;;;;;8.70;3.80;;;16.00;99.90;;;;;;5102669;28;20376;-62
2022/08/21 00:12:13;;;;;;;4.93;3.72;;;15.90;99.90;;;;;;5102944;28;20052;-63
2022/08/21 00:14:39;;;;;;;7.13;3.72;;;15.80;99.90;;;;;;5102691;28;20104;-62
2022/08/21 00:17:06;;;;;;;5.82;3.78;;;15.70;99.90;;;;;;5102534;28;20100;-62
2022/08/21 00:19:33;;;;;;;5.72;3.83;;;15.60;99.90;;;;;;5099678;28;20044;-63
2022/08/21 00:21:59;;;;;;;9.05;3.95;;;15.50;99.90;;;;;;5102512;28;20040;-63
2022/08/21 00:24:25;;;;;;;10.70;4.65;;;15.30;99.90;;;;;;5102184;28;20101;-62
2022/08/21 00:26:51;;;;;;;7.45;3.75;;;15.40;99.90;;;;;;5102334;28;20047;-63
2022/08/21 00:29:17;;;;;;;9.18;4.68;;;15.40;99.90;;;;;;5103643;28;20069;-62
2022/08/21 00:31:44;;;;;;;7.03;3.45;;;15.40;99.90;;;;;;5102128;28;20040;-63
2022/08/21 00:34:11;;;;;;;8.55;4.47;;;15.30;99.90;;;;;;5103496;28;20040;-62
2022/08/21 00:36:37;;;;;;;7.97;3.70;;;15.20;99.90;;;;;;5099187;28;20087;-63
2022/08/21 00:39:08;;;;;;;8.95;3.92;;;15.10;99.90;;;;;;5101855;28;20052;-62
2022/08/21 00:41:36;;;;;;;6.68;3.80;;;15.00;99.90;;;;;;5093716;28;20058;-62
2022/08/21 00:44:03;;;;;;;7.70;4.22;;;15.00;99.90;;;;;;5103927;28;20040;-62
2022/08/21 00:46:29;;;;;;;7.55;4.25;;;15.10;99.90;;;;;;5103660;28;20036;-62
2022/08/21 00:48:55;;;;;;;8.95;4.22;;;15.10;99.90;;;;;;5102126;28;20127;-63
2022/08/21 00:51:32;;;;;;;10.73;4.80;;;15.10;99.90;;;;;;5102081;28;20048;-62
2022/08/21 00:54:00;;;;;;;8.23;4.82;;;15.20;99.90;;;;;;5104028;28;20052;-62
2022/08/21 00:56:28;;;;;;;6.90;4.40;;;15.20;99.90;;;;;;5105984;28;20044;-63
2022/08/21 00:58:57;;;;;;;7.45;4.60;;;15.20;99.90;;;;;;5122999;28;20048;-62
2022/08/21 01:01:23;;;;;;;8.15;4.60;;;15.20;99.90;;;;;;5108026;28;20043;-62
2022/08/21 01:03:49;;;;;;;9.15;5.20;;;15.10;99.90;;;;;;5106437;28;20059;-62
2022/08/21 01:06:15;;;;;;;7.45;4.55;;;15.20;99.90;;;;;;5106549;28;20044;-62
2022/08/21 01:08:41;;;;;;;8.52;4.82;;;15.20;99.90;;;;;;5099384;28;20040;-62
2022/08/21 01:11:07;;;;;;;7.28;4.80;;;15.20;99.90;;;;;;5106960;28;20040;-62
2022/08/21 01:13:39;;;;;;;9.00;4.47;;;15.20;99.90;;;;;;5107110;28;20055;-63
2022/08/21 01:16:09;;;;;;;7.60;4.53;;;15.20;99.90;;;;;;5106249;28;20044;-62
2022/08/21 01:18:35;;;;;;;10.75;5.53;;;15.30;99.90;;;;;;5105486;28;20048;-62
2022/08/21 01:21:02;;;;;;;7.47;4.88;;;15.30;99.90;;;;;;5105529;28;20444;-62
2022/08/21 01:23:28;;;;;;;7.63;5.03;;;15.40;99.90;;;;;;5116042;28;20492;-63
2022/08/21 01:25:54;;;;;;;9.02;4.70;;;15.40;99.90;;;;;;5105017;28;20044;-62
2022/08/21 01:28:21;;;;;;;9.30;5.07;;;15.40;99.90;;;;;;5105681;28;20178;-63
2022/08/21 01:30:50;;;;;;;9.43;5.22;;;15.30;99.90;;;;;;5107757;28;20036;-62
2022/08/21 01:33:19;;;;;;;8.35;5.15;;;15.30;99.90;;;;;;5105486;28;20044;-63
2022/08/21 01:35:45;;;;;;;9.15;5.45;;;15.20;99.90;;;;;;5105150;28;20048;-62
2022/08/21 01:38:11;;;;;;;8.35;4.97;;;15.10;99.90;;;;;;5105838;28;20508;-63
2022/08/21 01:40:36;;;;;;;7.20;4.65;;;15.00;99.90;;;;;;5085784;28;20078;-62
2022/08/21 01:43:03;;;;;;;5.65;4.03;;;15.00;99.90;;;;;;5105660;28;20044;-62
2022/08/21 01:45:29;;;;;;;10.18;5.55;;;15.00;99.90;;;;;;5104188;28;20059;-63
2022/08/21 01:47:55;;;;;;;9.82;4.55;;;15.00;99.90;;;;;;5105516;28;20032;-62
2022/08/21 01:50:21;;;;;;;7.53;5.07;;;15.00;99.90;;;;;;5107520;28;20055;-62
2022/08/21 01:52:47;;;;;;;6.32;4.00;;;15.00;99.90;;;;;;5107568;28;20059;-63
2022/08/21 01:55:14;;;;;;;6.03;4.97;;;14.80;99.90;;;;;;5105796;28;20040;-62
2022/08/21 01:57:40;;;;;;;8.23;4.68;;;14.70;99.90;;;;;;5104810;28;20051;-62
2022/08/21 02:00:11;;;;;;;8.82;5.07;;;14.70;99.90;;;;;;5106573;28;20038;-62
2022/08/21 02:02:37;;;;;;;12.63;5.63;;;14.70;99.90;;;;;;5105230;28;20079;-62
2022/08/21 02:05:04;;;;;;;8.60;4.93;;;14.60;99.90;;;;;;5106043;28;20042;-62
2022/08/21 02:07:39;;;;;;;8.73;4.35;;;14.60;99.90;;;;;;5104217;28;20040;-62
2022/08/21 02:10:06;;;;;;;7.75;4.30;;;14.50;99.90;;;;;;5105567;28;20032;-62
2022/08/21 02:12:32;;;;;;;8.73;4.40;;;14.30;99.90;;;;;;5104549;28;20055;-62
2022/08/21 02:14:58;;;;;;;7.63;5.22;;;14.20;99.90;;;;;;5106034;28;20032;-62
2022/08/21 02:17:24;;;;;;;7.25;4.35;;;14.20;99.90;;;;;;5105442;28;20036;-62
2022/08/21 02:19:50;;;;;;;6.60;3.78;;;14.20;99.90;;;;;;5100198;28;20150;-62
2022/08/21 02:22:15;;;;;;;8.65;4.40;;;14.00;99.90;;;;;;5106143;28;20063;-62
2022/08/21 02:24:41;;;;;;;5.55;4.32;;;13.90;99.90;;;;;;5099733;28;20036;-62
2022/08/21 02:27:07;;;;;;;5.97;4.50;;;13.80;99.90;;;;;;5107050;28;20044;-62
2022/08/21 02:29:32;;;;;;;8.52;4.15;;;13.80;99.90;;;;;;5104220;28;20498;-63
2022/08/21 02:31:58;;;;;;;7.28;4.82;;;13.80;99.90;;;;;;5104202;28;20127;-62
2022/08/21 02:34:24;;;;;;;6.10;4.25;;;13.80;99.90;;;;;;5104195;28;20072;-62
2022/08/21 02:36:50;;;;;;;5.97;4.38;;;13.70;99.90;;;;;;5119534;28;20555;-63
2022/08/21 02:39:16;;;;;;;8.18;6.03;;;13.60;99.90;;;;;;5103959;28;20491;-63
2022/08/21 02:41:42;;;;;;;6.50;5.38;;;13.60;99.90;;;;;;5103647;28;20052;-62
2022/08/21 02:44:07;;;;;;;8.70;5.47;;;13.50;99.90;;;;;;5104645;28;20063;-63
2022/08/21 02:46:34;;;;;;;10.07;5.85;;;13.40;99.90;;;;;;5100000;28;20045;-62
2022/08/21 02:48:59;;;;;;;9.88;5.75;;;13.50;99.90;;;;;;5105318;28;20048;-62
2022/08/21 02:51:25;;;;;;;8.85;4.95;;;13.50;99.90;;;;;;5104209;28;20067;-62
2022/08/21 02:53:51;;;;;;;7.00;5.43;;;13.50;99.90;;;;;;5105051;28;20044;-62
2022/08/21 02:56:19;;;;;;;6.82;5.13;;;13.40;99.90;;;;;;5104811;28;20074;-62
2022/08/21 02:58:52;;;;;;;9.32;5.57;;;13.40;99.90;;;;;;5106078;28;20127;-62
2022/08/21 03:01:18;;;;;;;11.35;5.03;;;13.40;99.90;;;;;;5100426;28;20449;-62
2022/08/21 03:03:46;;;;;;;10.00;5.82;;;13.30;99.90;;;;;;5105719;28;20333;-62
2022/08/21 03:06:14;;;;;;;8.73;6.63;;;13.40;99.90;;;;;;5092911;28;20059;-62
2022/08/21 03:08:40;;;;;;;9.57;6.95;;;13.40;99.90;;;;;;5104386;28;20567;-62
2022/08/21 03:11:06;;;;;;;7.43;6.13;;;13.50;99.90;;;;;;5102950;28;20524;-63
2022/08/21 03:13:32;;;;;;;6.72;5.93;;;13.60;99.90;;;;;;5104201;28;20048;-62
2022/08/21 03:15:58;;;;;;;10.35;5.80;;;13.50;99.90;;;;;;5105317;28;20070;-62
2022/08/21 03:18:25;;;;;;;11.45;6.82;;;13.50;99.90;;;;;;5104182;28;20048;-62
2022/08/21 03:20:50;;;;;;;8.40;6.82;;;13.50;99.90;;;;;;5104050;28;20042;-62
2022/08/21 03:23:17;;;;;;;8.95;6.63;;;13.40;99.90;;;;;;5104276;28;20114;-62
2022/08/21 03:25:44;;;;;;;8.43;6.50;;;13.40;99.90;;;;;;5096801;28;20074;-62
2022/08/21 03:28:14;;;;;;;14.25;9.55;;;13.50;99.90;;;;;;5103998;28;20048;-62
2022/08/21 03:30:41;;;;;;;12.55;8.88;;;13.60;99.90;;;;;;5104633;28;20445;-62
2022/08/21 03:33:07;;;;;;;17.00;10.27;;;13.70;99.90;;;;;;5099989;28;20119;-62
2022/08/21 03:35:33;;;;;;;8.68;7.40;;;13.70;99.90;;;;;;5101934;28;20055;-62
2022/08/21 03:37:58;;;;;;;18.23;11.13;;;13.70;99.90;;;;;;5103404;28;20052;-62
2022/08/21 03:40:24;;;;;;;14.40;9.73;;;13.70;99.90;;;;;;5101464;28;20111;-62
2022/08/21 03:42:50;;;;;;;11.23;8.80;;;13.70;99.90;;;;;;5105272;28;20036;-62
2022/08/21 03:45:18;;;;;;;16.20;9.40;;;13.60;99.90;;;;;;5103220;28;20040;-63
2022/08/21 03:47:55;;;;;;;18.33;10.90;;;13.60;99.90;;;;;;5102747;28;20036;-62
2022/08/21 03:50:22;;;;;;;13.18;10.20;;;13.70;99.90;;;;;;5104166;28;20074;-62
2022/08/21 03:52:49;;;;;;;13.70;10.52;;;13.60;99.90;;;;;;5102818;28;20051;-62
2022/08/21 03:55:14;;;;;;;17.08;10.38;;;13.60;99.90;;;;;;5104478;28;20036;-62
2022/08/21 03:57:40;;;;;;;14.23;9.70;;;13.70;99.90;;;;;;5104155;28;20074;-62
2022/08/21 04:00:08;;;;;;;13.00;8.93;;;13.70;99.90;;;;;;5102437;28;20039;-62
2022/08/21 04:02:35;;;;;;;10.70;8.95;;;13.70;99.90;;;;;;5102612;28;20051;-62
2022/08/21 04:05:01;;;;;;;11.13;9.65;;;13.80;99.90;;;;;;5102727;28;20056;-62
2022/08/21 04:07:27;;;;;;;16.35;10.65;;;13.90;99.90;;;;;;5104800;28;20065;-62
2022/08/21 04:09:52;;;;;;;16.17;10.45;;;14.00;99.90;;;;;;5102908;28;20071;-62
2022/08/21 04:12:19;;;;;;;16.45;11.60;;;14.10;99.90;;;;;;5103185;28;20111;-62
2022/08/21 04:14:44;;;;;;;16.10;10.60;;;14.20;99.90;;;;;;5104440;28;20127;-62
2022/08/21 04:17:10;;;;;;;16.33;10.90;;;14.20;99.90;;;;;;5103370;28;20796;-62
2022/08/21 04:19:35;;;;;;;11.88;9.85;;;14.30;99.90;;;;;;5103555;28;20062;-62
2022/08/21 04:22:01;;;;;;;15.68;9.80;;;14.40;99.90;;;;;;5103794;28;20119;-62
2022/08/21 04:24:27;;;;;;;16.38;10.52;;;14.40;99.90;;;;;;5103490;28;20055;-62
2022/08/21 04:26:53;;;;;;;17.00;10.35;;;14.40;99.90;;;;;;5104355;28;20135;-62
2022/08/21 04:29:19;;;;;;;14.35;9.90;;;14.50;99.90;;;;;;5105497;28;20050;-62
2022/08/21 04:31:45;;;;;;;17.88;9.70;;;14.40;99.90;;;;;;5107528;28;20056;-63
2022/08/21 04:34:11;;;;;;;15.27;10.05;;;14.40;99.90;;;;;;5106384;28;20104;-62
2022/08/21 04:36:37;;;;;;;19.30;9.95;;;14.40;99.90;;;;;;5108736;28;20064;-62
2022/08/21 04:39:03;;;;;;;18.48;10.13;;;14.40;99.90;;;;;;5103908;28;20468;-62
2022/08/21 04:41:28;;;;;;;16.38;10.10;;;14.40;99.90;;;;;;5107446;28;20036;-62
2022/08/21 04:43:57;;;;;;;17.25;10.05;;;14.50;99.90;;;;;;5108075;28;20418;-62
2022/08/21 04:46:23;;;;;;;16.88;11.15;;;14.50;99.90;;;;;;5107821;28;20040;-62
2022/08/21 04:48:49;;;;;;;16.92;10.82;;;14.50;99.90;;;;;;5105353;28;20047;-62
2022/08/21 04:51:22;;;;;;;14.85;9.85;;;14.60;99.90;;;;;;5107402;28;20071;-62
2022/08/21 04:53:58;;;;;;;17.08;10.77;;;14.60;99.90;;;;;;5100816;28;20040;-62
2022/08/21 04:56:29;;;;;;;15.60;10.20;;;14.60;99.90;;;;;;5105917;28;20451;-62
2022/08/21 04:58:59;;;;;;;13.85;10.68;;;14.60;99.90;;;;;;5107266;28;20044;-62
2022/08/21 05:01:28;;;;;;;18.50;11.50;;;14.60;99.90;;;;;;5105770;28;20507;-62
2022/08/21 05:03:58;;;;;;;16.20;10.80;;;14.50;99.90;;;;;;5107367;28;20040;-62
2022/08/21 05:06:24;;;;;;;17.63;12.40;;;14.50;99.90;;;;;;5105779;28;20044;-62
2022/08/21 05:08:52;;;;;;;18.95;11.50;;;14.50;99.90;;;;;;5106508;28;20062;-62
2022/08/21 05:11:19;;;;;;;12.95;10.43;;;14.60;99.90;;;;;;5107343;28;20111;-62
2022/08/21 05:13:45;;;;;;;16.20;11.43;;;14.60;99.90;;;;;;5105024;28;20490;-62
2022/08/21 05:16:11;;;;;;;16.85;11.63;;;14.60;99.90;;;;;;5105796;28;20044;-62
2022/08/21 05:18:37;;;;;;;13.80;10.70;;;14.50;99.90;;;;;;5102698;28;20059;-62
2022/08/21 05:21:03;;;;;;;14.95;11.48;;;14.60;99.90;;;;;;5098386;28;20051;-62
2022/08/21 05:23:29;;;;;;;15.70;11.88;;;14.60;99.90;;;;;;5101849;28;20049;-62
2022/08/21 05:25:55;;;;;;;14.38;11.07;;;14.70;99.90;;;;;;5101933;28;20055;-62
2022/08/21 05:28:21;;;;;;;12.50;10.02;;;14.70;99.90;;;;;;5098790;28;20500;-62
2022/08/21 05:30:47;;;;;;;16.92;9.85;;;14.70;99.90;;;;;;5105766;28;20040;-62
2022/08/21 05:33:13;;;;;;;15.43;10.30;;;14.80;99.90;;;;;;5096321;28;20100;-62
2022/08/21 05:35:39;;;;;;;17.17;12.05;;;14.80;99.90;;;;;;5103839;28;20144;-62
2022/08/21 05:38:05;;;;;;;15.68;11.05;;;14.80;99.90;;;;;;5095789;28;20059;-62
2022/08/21 05:40:31;;;;;;;16.90;11.43;;;14.80;99.90;;;;;;5096554;28;20423;-62
2022/08/21 05:42:58;;;;;;;15.60;10.30;;;14.90;99.90;;;;;;5105332;28;20048;-62
2022/08/21 05:45:28;;;;;;;16.25;11.02;;;14.90;99.90;;;;;;5104692;28;20079;-62
2022/08/21 05:47:54;;;;;;;18.75;10.60;;;14.90;99.90;;;;;;5103421;28;20036;-62
2022/08/21 05:50:20;;;;;;;17.67;11.07;;;14.90;99.90;;;;;;5105000;28;20159;-62
2022/08/21 05:52:46;;;;;;;13.77;10.18;;;14.90;99.90;;;;;;5101385;28;20101;-62
2022/08/21 05:55:12;;;;;;;15.23;9.25;;;15.00;99.90;;;;;;5089136;28;20070;-62
2022/08/21 05:57:40;;;;;;;13.50;9.05;;;15.10;99.90;;;;;;5106163;28;20050;-62
2022/08/21 06:00:09;;;;;;;12.45;8.82;;;15.20;99.90;;;;;;5105646;28;20104;-62
2022/08/21 06:02:35;;;;;;;13.75;9.52;;;15.20;99.90;;;;;;5106636;28;20047;-67
2022/08/21 06:05:01;;;;;;;13.98;9.20;;;15.30;99.90;;;;;;5106648;28;20040;-67
2022/08/21 06:07:27;;;;;;;13.23;8.68;;;15.30;99.90;;;;;;5101710;28;20048;-67
2022/08/21 06:09:52;;;;;;;11.82;8.57;;;15.40;99.90;;;;;;5105620;28;20047;-67
2022/08/21 06:12:18;;;;;;;13.43;8.43;;;15.50;99.90;;;;;;5088996;28;20454;-67
2022/08/21 06:14:44;;;;;;;15.65;9.02;;;15.50;99.90;;;;;;5106142;28;20058;-67
2022/08/21 06:17:11;;;;;;;14.75;8.85;;;15.60;99.90;;;;;;5103179;28;20235;-66
2022/08/21 06:19:38;;;;;;;13.73;9.68;;;15.70;99.90;;;;;;5102560;28;20052;-66
2022/08/21 06:22:04;;;;;;;17.00;9.82;;;15.70;99.90;;;;;;5104247;28;20126;-67
2022/08/21 06:24:30;;;;;;;13.48;8.98;;;15.70;99.90;;;;;;5104208;28;20040;-66
2022/08/21 06:26:56;;;;;;;15.60;9.90;;;15.80;99.90;;;;;;5083086;28;20067;-67
2022/08/21 06:29:23;;;;;;;16.45;8.05;;;15.90;99.90;;;;;;5103640;28;20043;-67
2022/08/21 06:31:51;;;;;;;17.92;9.35;;;15.90;99.90;;;;;;5103717;28;20070;-67
2022/08/21 06:34:17;;;;;;;14.57;9.15;;;16.00;99.90;;;;;;5104813;28;20040;-67
2022/08/21 06:36:43;;;;;;;19.92;8.90;;;16.10;99.90;;;;;;5103709;28;20048;-67
2022/08/21 06:39:09;;;;;;;13.15;8.30;;;16.20;99.90;;;;;;5103404;28;20043;-67
2022/08/21 06:41:34;;;;;;;15.50;8.23;;;16.30;99.90;;;;;;5101986;28;20488;-69
2022/08/21 06:44:00;;;;;;;14.85;8.68;;;16.30;99.90;;;;;;5104666;28;20059;-69
2022/08/21 06:46:28;;;;;;;13.98;8.18;;;16.40;99.90;;;;;;5099167;28;20492;-69
2022/08/21 06:48:55;;;;;;;14.20;8.05;;;16.50;99.90;;;;;;5102680;28;20028;-69
2022/08/21 06:51:22;;;;;;;12.80;8.88;;;16.60;99.90;;;;;;5102582;28;20074;-69
2022/08/21 06:53:49;;;;;;;13.02;7.30;;;16.70;99.90;;;;;;5083719;28;20052;-69
2022/08/21 06:56:15;;;;;;;15.15;7.50;;;16.70;99.90;;;;;;5100354;28;20059;-69
2022/08/21 06:58:40;;;;;;;12.70;7.53;;;16.80;99.90;;;;;;5104700;28;20116;-69
2022/08/21 07:01:06;;;;;;;14.02;7.35;;;16.90;99.90;;;;;;5104275;28;20032;-69
2022/08/21 07:03:41;;;;;;;13.38;7.65;;;17.00;99.90;;;;;;5101045;28;20044;-69
2022/08/21 07:06:08;;;;;;;17.65;7.82;;;17.10;99.90;;;;;;5103179;28;20060;-69
2022/08/21 07:08:35;;;;;;;17.35;7.88;;;17.10;99.90;;;;;;5101202;28;20059;-69
2022/08/21 07:11:03;;;;;;;17.05;6.95;;;17.30;99.90;;;;;;5104652;28;20036;-69
2022/08/21 07:13:29;;;;;;;16.10;7.35;;;17.30;99.90;;;;;;5105156;28;20047;-67
2022/08/21 07:15:55;;;;;;;16.15;7.43;;;17.40;99.90;;;;;;5105065;28;20035;-66
2022/08/21 07:18:21;;;;;;;19.17;7.43;;;17.50;99.90;;;;;;5105538;28;20059;-67
2022/08/21 07:20:47;;;;;;;12.43;6.85;;;17.60;99.90;;;;;;5104533;28;20040;-67
2022/08/21 07:23:47;;;;;;;17.77;8.30;;;17.60;99.90;;;;;;5104538;28;20097;-67
2022/08/21 07:26:14;;;;;;;13.18;6.82;;;17.70;99.90;;;;;;5031086;28;20103;-67
2022/08/21 07:28:39;;;;;;;14.70;7.15;;;17.80;99.90;;;;;;5023609;28;20049;-67
2022/08/21 07:31:05;;;;;;;11.20;6.68;;;17.80;99.90;;;;;;5047681;28;20049;-67
2022/08/21 07:33:33;;;;;;;13.65;6.28;;;18.00;99.90;;;;;;5063208;28;20071;-67
2022/08/21 07:36:00;;;;;;;20.38;6.35;;;18.10;99.90;;;;;;5045493;28;20053;-67
2022/08/21 07:38:26;;;;;;;14.30;5.32;;;18.20;99.90;;;;;;5045319;28;20063;-67
2022/08/21 07:40:55;;;;;;;11.77;5.85;;;18.20;99.90;;;;;;5035790;28;20048;-67
2022/08/21 07:43:21;;;;;;;12.10;5.10;;;18.40;99.90;;;;;;5044911;28;20087;-69
2022/08/21 07:45:49;;;;;;;12.13;4.88;;;18.50;99.90;;;;;;5044944;28;20049;-68
2022/08/21 07:48:15;;;;;;;12.70;5.30;;;18.50;99.90;;;;;;5041535;28;20062;-69
2022/08/21 07:50:42;;;;;;;11.15;5.53;;;18.60;99.90;;;;;;5045831;28;20072;-65
2022/08/21 07:53:08;;;;;;;11.05;4.45;;;18.60;99.90;;;;;;5062484;28;20080;-64
2022/08/21 07:55:34;;;;;;;13.48;4.40;;;18.70;99.90;;;;;;5045031;28;20057;-65
2022/08/21 07:58:00;;;;;;;12.70;5.03;;;18.70;99.90;;;;;;5044533;28;20059;-65
2022/08/21 08:00:28;;;;;;;11.02;4.65;;;18.80;99.90;;;;;;5044071;28;20124;-65
2022/08/21 08:02:55;;;;;;;10.60;3.97;;;18.90;99.90;;;;;;5100112;28;20105;-65
2022/08/21 08:05:24;;;;;;;12.55;3.92;;;18.90;99.90;;;;;;5104127;28;20088;-65
2022/08/21 08:07:50;;;;;;;13.00;4.25;;;19.10;99.90;;;;;;5101789;28;20070;-65
2022/08/21 08:10:17;;;;;;;11.70;4.13;;;19.10;99.90;;;;;;5103617;28;20051;-65
2022/08/21 08:12:43;;;;;;;12.20;4.07;;;19.20;99.90;;;;;;5100606;28;20078;-65
2022/08/21 08:15:14;;;;;;;13.50;4.57;;;19.20;99.90;;;;;;5103282;28;20066;-67
2022/08/21 08:17:40;;;;;;;10.18;3.67;;;19.30;99.90;;;;;;5102429;28;20052;-67
2022/08/21 08:20:07;;;;;;;16.27;4.40;;;19.40;99.90;;;;;;5104278;28;20059;-67
2022/08/21 08:22:34;;;;;;;8.75;3.50;;;19.50;99.90;;;;;;5102330;28;20044;-67
2022/08/21 08:25:00;;;;;;;10.30;3.20;;;19.50;99.90;;;;;;5083876;28;20132;-67
2022/08/21 08:27:26;;;;;;;10.90;3.75;;;19.50;99.90;;;;;;5099625;28;20091;-67
2022/08/21 08:29:51;;;;;;;14.35;3.97;;;19.60;99.90;;;;;;5112222;28;20055;-67
2022/08/21 08:32:18;;;;;;;11.05;4.03;;;19.70;99.90;;;;;;5104511;28;20131;-68
2022/08/21 08:34:44;;;;;;;10.35;3.15;;;19.70;99.90;;;;;;5103418;28;20035;-67
2022/08/21 08:37:10;;;;;;;12.73;3.72;;;19.80;99.90;;;;;;5103556;28;20052;-67
2022/08/21 08:39:36;;;;;;;9.50;2.90;;;19.90;99.90;;;;;;5100957;28;20399;-68
2022/08/21 08:42:13;;;;;;;12.70;4.18;;;20.00;99.90;;;;;;5103122;28;20127;-68
2022/08/21 08:44:39;;;;;;;7.82;2.70;;;20.10;99.90;;;;;;5102617;28;20452;-67
2022/08/21 08:47:05;;;;;;;12.52;3.42;;;20.00;99.90;;;;;;5102932;28;20069;-68
2022/08/21 08:49:55;;;;;;;8.63;3.00;;;20.20;99.90;;;;;;5099125;28;20437;-67
2022/08/21 08:52:43;;;;;;;13.25;3.00;;;20.30;99.90;;;;;;5072819;28;20052;-67
2022/08/21 08:55:17;;;;;;;12.48;3.20;;;20.40;99.90;;;;;;5100170;28;20073;-65
2022/08/21 08:57:46;;;;;;;8.73;2.90;;;20.30;99.90;;;;;;5101964;28;20048;-65
2022/08/21 09:00:15;;;;;;;11.45;3.90;;;20.50;99.90;;;;;;5098156;28;20249;-65
2022/08/21 09:02:45;;;;;;;8.43;3.53;;;20.50;99.90;;;;;;5096140;28;20043;-66
2022/08/21 09:05:24;;;;;;;8.18;3.42;;;20.50;99.90;;;;;;5101757;28;20044;-66
2022/08/21 09:08:32;;;;;;;13.90;4.07;;;20.40;99.90;;;;;;5100792;28;20133;-65
2022/08/21 09:11:08;;;;;;;9.45;3.35;;;20.20;99.90;;;;;;5097541;28;20044;-65
2022/08/21 09:13:51;;;;;;;8.00;3.67;;;20.20;99.90;;;;;;5100069;28;20057;-67
2022/08/21 09:16:31;;;;;;;13.13;4.65;;;20.40;99.90;;;;;;5047329;28;20045;-67
2022/08/21 09:19:05;;;;;;;10.32;3.25;;;20.50;99.90;;;;;;5071657;28;20044;-68
2022/08/21 09:21:48;;;;;;;9.98;2.72;;;20.50;99.90;;;;;;5074987;28;20051;-67
2022/08/21 09:24:31;;;;;;;9.27;2.92;;;20.60;99.90;;;;;;5092034;28;20079;-68
2022/08/21 09:27:12;;;;;;;12.27;3.50;;;20.80;99.90;;;;;;5076857;28;20354;-67
2022/08/21 09:29:42;;;;;;;9.23;3.22;;;20.70;99.90;;;;;;5097146;28;20408;-68
2022/08/21 09:32:30;;;;;;;10.93;2.97;;;20.70;99.90;;;;;;5073632;28;20405;-69
2022/08/21 09:35:00;;;;;;;9.75;2.95;;;20.80;99.90;;;;;;5097553;28;20044;-68
2022/08/21 09:37:32;;;;;;;7.55;3.13;;;20.80;99.90;;;;;;5064457;28;20048;-67
2022/08/21 09:39:58;;;;;;;9.02;3.75;;;21.00;99.90;;;;;;5096710;28;20052;-68
2022/08/21 09:42:34;;;;;;;6.68;3.30;;;21.00;99.90;;;;;;5088834;28;20071;-67
2022/08/21 09:45:18;;;;;;;8.75;3.33;;;21.00;99.90;;;;;;5099088;28;20040;-68
2022/08/21 09:47:45;;;;;;;10.88;3.85;;;20.90;99.90;;;;;;5088159;28;20043;-67
2022/08/21 09:50:14;;;;;;;13.25;3.50;;;21.00;99.90;;;;;;5098615;28;20079;-68
2022/08/21 09:52:53;;;;;;;9.48;3.45;;;21.10;99.90;;;;;;5060873;28;20235;-67
2022/08/21 09:58:14;;;;;;;7.22;2.80;;;21.30;99.90;;;;;;5098362;28;20140;-67
2022/08/21 10:00:42;;;;;;;8.55;2.55;;;21.30;99.90;;;;;;5085899;28;20056;-67
2022/08/21 10:03:19;;;;;;;8.07;2.47;;;21.40;99.90;;;;;;5085756;28;20127;-67
2022/08/21 10:06:01;;;;;;;9.82;2.53;;;21.50;99.90;;;;;;5077857;28;20059;-67
2022/08/21 10:08:29;;;;;;;9.50;3.47;;;21.50;99.90;;;;;;5084819;28;20093;-64
2022/08/21 10:11:02;;;;;;;9.65;3.50;;;21.50;99.90;;;;;;5088335;28;20067;-65
2022/08/21 10:13:44;;;;;;;8.18;2.00;;;21.50;99.90;;;;;;5097359;28;20105;-65
2022/08/21 10:16:15;;;;;;;7.68;2.72;;;21.50;99.90;;;;;;5087841;28;20112;-64
2022/08/21 10:18:42;;;;;;;10.88;2.42;;;21.50;99.90;;;;;;5099596;28;20074;-64
2022/08/21 10:21:27;;;;;;;9.10;3.25;;;21.50;99.90;;;;;;5091149;28;20039;-64
2022/08/21 10:24:14;;;;;;;6.70;2.30;;;21.50;99.90;;;;;;5081147;28;20044;-64
2022/08/21 10:26:43;;;;;;;6.80;2.40;;;21.70;99.90;;;;;;5075901;28;20066;-64
2022/08/21 10:29:21;;;;;;;9.38;2.42;;;21.50;99.90;;;;;;5091131;28;20043;-64
2022/08/21 10:32:15;;;;;;;10.88;3.20;;;21.50;99.90;;;;;;5089589;28;20036;-65
2022/08/21 10:34:44;;;;;;;6.55;2.58;;;21.60;99.90;;;;;;5082998;28;20051;-64
2022/08/21 10:37:30;;;;;;;9.52;3.13;;;21.60;99.90;;;;;;5067943;28;20056;-64
2022/08/21 10:40:03;;;;;;;6.63;2.60;;;21.70;99.90;;;;;;5093373;28;20044;-64
2022/08/21 10:42:43;;;;;;;7.90;2.13;;;21.80;99.90;;;;;;5067435;28;20078;-64
2022/08/21 10:45:09;;;;;;;;;;;22.00;99.90;;;;;;5097313;28;20047;-64
2022/08/21 10:47:44;;;;;;;6.53;1.77;;;22.00;99.90;;;;;;5073409;28;19923;-66
2022/08/21 10:50:16;;;;;;;8.43;2.20;;;22.10;99.90;;;;;;5090743;28;20244;-65
2022/08/21 10:53:12;;;;;;;6.25;2.20;;;22.30;99.90;;;;;;5049656;28;20040;-64
2022/08/21 10:56:09;;;;;;;6.05;1.90;;;22.40;99.90;;;;;;5081733;28;20134;-65
2022/08/21 10:58:45;;;;;;;5.82;1.70;;;22.50;99.90;;;;;;5082372;28;20048;-65
2022/08/21 11:01:24;;;;;;;7.47;1.80;;;22.40;99.90;;;;;;5089904;28;20051;-65
2022/08/21 11:04:08;;;;;;;5.30;2.05;;;22.40;99.90;;;;;;5104996;28;20062;-64
2022/08/21 11:06:40;;;;;;;7.85;1.90;;;22.60;99.90;;;;;;5081131;28;20052;-64
2022/08/21 11:09:13;;;;;;;9.93;2.63;;;22.60;99.90;;;;;;5100581;28;20145;-63
2022/08/21 11:11:47;;;;;;;5.90;2.13;;;22.80;99.90;;;;;;5091271;28;20050;-63
2022/08/21 11:14:18;;;;;;;8.00;1.98;;;22.80;99.90;;;;;;5104506;28;20099;-64
2022/08/21 11:16:56;;;;;;;7.50;1.55;;;22.80;99.90;;;;;;5060837;28;20101;-63
2022/08/21 11:19:34;;;;;;;5.40;1.52;;;22.80;99.90;;;;;;5088940;28;20111;-64
2022/08/21 11:22:23;;;;;;;6.30;1.60;;;22.90;99.90;;;;;;5089349;28;20318;-64
2022/08/21 11:24:59;;;;;;;5.38;1.58;;;23.10;99.90;;;;;;5094933;28;20062;-64
2022/08/21 11:27:39;;;;;;;10.10;2.40;;;23.20;99.90;;;;;;5089423;28;20073;-64
2022/08/21 11:30:08;;;;;;;7.13;2.15;;;23.30;99.90;;;;;;5100514;28;20054;-64
2022/08/21 11:32:58;;;;;;;7.30;1.70;;;23.10;99.90;;;;;;5085988;28;20113;-63
2022/08/21 11:35:46;;;;;;;9.05;2.63;;;22.80;99.90;;;;;;5093714;28;20052;-63
2022/08/21 11:38:23;;;;;;;7.43;1.67;;;22.80;99.90;;;;;;5087215;28;20044;-64
2022/08/21 11:40:49;;;;;;;8.48;1.70;;;22.80;99.90;;;;;;5084690;28;20051;-63
2022/08/21 11:43:42;;;;;;;4.60;1.65;;;23.00;99.90;;;;;;5094876;28;20085;-63
2022/08/21 11:46:38;;;;;;;5.65;2.00;;;23.10;99.90;;;;;;5099007;28;20048;-64
2022/08/21 11:49:23;;;;;;;5.20;1.60;;;23.20;99.90;;;;;;5089669;28;20044;-64
2022/08/21 11:52:12;;;;;;;5.47;2.30;;;23.20;99.90;;;;;;5073840;28;20423;-64
2022/08/21 11:54:43;;;;;;;7.35;2.00;;;23.40;99.90;;;;;;5091350;28;20059;-64
2022/08/21 11:57:34;;;;;;;9.25;1.77;;;23.50;99.90;;;;;;5087873;28;20102;-65
2022/08/21 12:00:16;;;;;;;8.77;2.40;;;23.50;99.90;;;;;;5097513;28;20655;-66
2022/08/21 12:02:51;;;;;;;5.70;2.03;;;23.50;99.90;;;;;;5087314;28;20093;-66
2022/08/21 12:05:32;;;;;;;5.00;1.92;;;23.50;99.90;;;;;;5078112;28;20047;-66
2022/08/21 12:08:13;;;;;;;6.47;2.53;;;23.40;99.90;;;;;;5068728;28;20052;-66
2022/08/21 12:10:46;;;;;;;6.28;2.78;;;23.50;99.90;;;;;;5095598;28;20039;-66
2022/08/21 12:13:28;;;;;;;6.50;2.25;;;23.60;99.90;;;;;;5067844;28;20074;-66
2022/08/21 12:16:05;;;;;;;9.57;2.55;;;23.70;99.90;;;;;;5082816;28;20093;-67
2022/08/21 12:18:31;;;;;;;6.45;2.28;;;23.80;99.90;;;;;;5095006;28;20640;-66
2022/08/21 12:21:05;;;;;;;7.03;2.00;;;24.00;99.90;;;;;;5085538;28;20108;-66
2022/08/21 12:23:34;;;;;;;7.70;1.92;;;24.30;99.90;;;;;;5104902;28;20041;-64
2022/08/21 12:26:26;;;;;;;6.40;1.80;;;24.40;99.90;;;;;;5100438;28;20085;-64
2022/08/21 12:29:04;;;;;;;7.05;1.80;;;24.60;99.90;;;;;;5097175;28;20039;-63
2022/08/21 12:31:30;;;;;;;6.80;2.08;;;24.60;99.90;;;;;;5079031;28;20074;-64
2022/08/21 12:34:01;;;;;;;6.65;2.08;;;24.60;99.90;;;;;;5094617;28;20040;-63
2022/08/21 12:36:45;;;;;;;6.32;1.75;;;24.80;99.90;;;;;;5081103;28;20213;-63
2022/08/21 12:39:21;;;;;;;6.95;1.98;;;24.90;99.90;;;;;;5084925;28;20085;-64
2022/08/21 12:41:56;;;;;;;7.05;2.20;;;25.00;99.60;;;;;;5066450;28;20048;-63
2022/08/21 12:44:31;;;;;;;5.47;1.70;;;24.80;99.90;;;;;;5091751;28;20048;-64
2022/08/21 12:47:03;;;;;;;5.78;1.80;;;24.60;99.70;;;;;;5076316;28;20083;-63
2022/08/21 12:49:48;;;;;;;5.50;1.58;;;24.40;99.90;;;;;;5090823;28;20032;-65
2022/08/21 12:52:21;;;;;;;5.90;1.70;;;24.30;99.00;;;;;;5066941;28;20048;-64
2022/08/21 12:54:46;;;;;;;7.30;2.42;;;24.30;99.20;;;;;;5101385;28;20581;-65
2022/08/21 12:57:28;;;;;;;8.43;2.22;;;24.10;99.90;;;;;;5090213;28;20048;-65